LPMA/FNC METAR and TAF weather

Enter ICAO airport designator
Station Type Date Time Source
LPMA METAR 2019/08/26 07:30 UTC NOAA

LPMA 260730Z 36007KT 290V040 9999 FEW015 BKN030 22/17 Q1018


Station Type Date Time Source
LPMA Decoded METAR 2019/08/26 07:30 UTC NOAA

Station name not available
Aug 26, 2019 - 03:30 AM EDT / 2019.08.26 0730 UTC
Wind: from the N (360 degrees) at 8 MPH (7 KT) (direction variable):0
Visibility: greater than 7 mile(s):0
Sky conditions: mostly cloudy
Temperature: 71 F (22 C)
Dew Point: 62 F (17 C)
Relative Humidity: 73%
Pressure (altimeter): 30.06 in. Hg (1018 hPa)
ob: LPMA 260730Z 36007KT 290V040 9999 FEW015 BKN030 22/17 Q1018
cycle: 7

Station Type Date Time Source
LPMA TAF 2019/08/26 06:18 UTC NOAA

TAF LPMA 260500Z 2606/2706 01015KT 9999 SCT015
TEMPO 2606/2622 02018G30KT
TEMPO 2606/2612 BKN013

Example: see airport list